North Spring Valley, Nevada Weather observations

Data are for 10 minute period ending at time listed.
 Day   Time   Solar   Ave.   Ave.  Ave.  Vector  Max.   Baro.   Total    
  of    of     Rad.   Air    Rel.  Wind   Wind   Wind  Press.  Precip.   
Year   Day            Temp.  Hum.  Speed  Dir.   Gust                    
2014   (PST)  Kw/m2    F      %     mph   deg.    mph    mb.     in.     
-------------------------------------------------------------------------
 244    8:20   0.59   65.9    32    4.3    28    10.3   829.5    0.00 
 244    8:30   0.62   67.2    31    2.6    34     5.3   829.5    0.00 
 244    8:40   0.65   68.8    30    1.9    50     4.2   829.6    0.00 
 244    8:50   0.68   69.5    29    2.3    19     4.8   829.6    0.00 
 244    9:00   0.70   70.0    28    3.2     6     5.6   829.6    0.00 
 244    9:10   0.73   70.6    28    3.2     1     6.4   829.5    0.00 
 244    9:20   0.76   72.3    26    2.1    22     5.5   829.3    0.00 
 244    9:30   0.78   73.1    25    2.3    34     5.6   829.3    0.00 
 244    9:40   0.80   73.6    24    2.8    87     7.2   829.2    0.00 
 244    9:50   0.82   74.5    22    1.7    60     6.5   829.1    0.00 
 244   10:00   0.84   74.7    22    2.0   332     5.2   829.1    0.00 
 244   10:10   0.86   74.8    22    4.1    58     7.2   829.1    0.00 
 244   10:20   0.87   76.0    21    1.6   108     4.8   829.0    0.00 
 244   10:30   0.89   76.3    20    3.9   131     8.1   829.0    0.00 
 244   10:40   0.90   75.9    21    4.0   118     8.4   828.9    0.00 
 244   10:50   0.91   76.9    19    3.7   162     8.3   828.8    0.00 
 244   11:00   0.92   77.1    20    2.3   272     5.8   828.7    0.00 
 244   11:10   0.92   78.0    20    2.8   108     7.1   828.7    0.00 
 244   11:20   0.93   77.3    20    3.8   102     6.9   828.6    0.00 
 244   11:30   0.93   77.9    19    3.1    34     6.6   828.4    0.00 
 244   11:40   0.93   77.8    20    3.2    44     6.7   828.2    0.00 
 244   11:50   0.93   78.9    19    4.6   154     7.7   828.2    0.00 
 244   12:00   0.93   80.3    18    2.3   196     7.1   828.1    0.00 
 244   12:10   0.93   79.9    18    4.3   191    10.2   828.1    0.00 
 244   12:20   0.92   79.4    18    4.8   134    10.4   828.1    0.00 
 244   12:30   0.92   80.1    18    3.6   180     7.2   828.0    0.00 
 244   12:40   0.90   80.9    18    4.7   173     9.1   828.0    0.00 
 244   12:50   0.89   80.9    17    4.8   177     8.7   828.0    0.00 
 244   13:00   0.88   80.6    17    4.4   116     8.7   827.9    0.00 
 244   13:10   0.87   80.9    18    5.0    84     9.3   827.7    0.00 
 244   13:20   0.85   81.0    17    4.8    69    11.5   827.7    0.00 
 244   13:30   0.83   81.1    17    5.5   107    11.3   827.7    0.00 
 244   13:40   0.81   81.7    16    4.0   144     8.2   827.6    0.00 
 244   13:50   0.79   81.9    16    1.8   273     5.0   827.5    0.00 
 244   14:00   0.76   81.8    16    3.8   115     8.1   827.4    0.00 
 244   14:10   0.74   82.0    16    3.6    64    10.9   827.3    0.00 
 244   14:20   0.71   82.2    16    4.5   112    10.8   827.3    0.00 
 244   14:30   0.69   82.5    16    2.6    48     8.3   827.2    0.00 
 244   14:40   0.66   82.7    16    2.7    59     6.4   827.0    0.00 
 244   14:50   0.63   83.3    15    4.6   160     8.1   827.0    0.00 
 244   15:00   0.60   83.8    15    2.1   170     5.4   827.0    0.00 
 244   15:10   0.57   84.3    15    2.7   169     7.1   827.0    0.00 
 244   15:20   0.54   83.7    15    3.9    66     9.1   827.0    0.00 
 244   15:30   0.50   83.6    16    2.4   123     5.3   827.0    0.00 
 244   15:40   0.47   84.0    16    2.9    74     8.7   827.0    0.00 
 244   15:50   0.43   83.1    16    4.3    53     9.1   827.0    0.00 
 244   16:00   0.40   83.0    15    1.8    67     5.2   826.9    0.00 
 244   16:10   0.36   84.3    15    2.1   164     4.2   826.8    0.00 
 244   16:20   0.33   85.2    14    2.1   190     4.6   826.8    0.00 
 244   16:30   0.29   85.4    15    1.4   268     3.3   826.7    0.00 
 244   16:40   0.25   84.6    15    0.6   290     2.1   826.7    0.00 
 244   16:50   0.22   84.4    15    1.6   192     3.6   826.6    0.00 
 244   17:00   0.19   83.8    16    2.5   209     5.7   826.5    0.00 
 244   17:10   0.15   79.1    24    5.4   264     7.6   826.4    0.00 
 244   17:20   0.03   74.7    28    5.8   274     7.0   826.3    0.00 
 244   17:30   0.03   73.4    28    6.2   279     8.0   826.1    0.00 
 244   17:40   0.02   73.3    27    6.5   284     8.7   826.0    0.00 
 244   17:50   0.02   72.7    28    5.7   280     7.7   826.1    0.00 
 244   18:00   0.01   71.5    29    4.9   278     6.4   826.2    0.00 
 244   18:10   0.01   71.1    29    5.2   294     7.5   826.4    0.00 
 244   18:20   0.00   70.4    29    6.7   317    10.7   826.7    0.00 
 244   18:30   0.00   72.0    26    7.6   326    11.2   826.9    0.00 
 244   18:40   0.00   71.7    26    6.8   328    11.0   827.0    0.00 
 244   18:50   0.00   71.6    26    7.2   331     9.6   827.1    0.00 
 244   19:00   0.00   71.1    27    7.9   331    12.3   827.2    0.00 
 244   19:10   0.00   71.1    26    9.4   336    14.2   827.4    0.00 
 244   19:20   0.00   70.5    27    8.4   330    14.2   827.6    0.00 
 244   19:30   0.00   70.0    27    7.9   329    11.9   827.6    0.00 
 244   19:40   0.00   69.5    28    7.4   326    10.2   827.6    0.00 
 244   19:50   0.00   69.5    27    7.8   328    11.3   827.7    0.00 
 244   20:00   0.00   69.5    27    7.8   327    11.4   827.7    0.00 
 244   20:10   0.00   68.9    28    7.1   328    10.1   827.8    0.00 
 244   20:20   0.00   68.8    28    7.2   327    10.8   827.8    0.00 
 244   20:30   0.00   68.8    28    7.6   325    11.0   827.9    0.00 
 244   20:40   0.00   68.1    29    7.0   322    11.2   827.8    0.00 
 244   20:50   0.00   67.9    29    6.8   320     9.5   827.8    0.00 
 244   21:00   0.00   67.4    30    6.5   320     9.8   827.8    0.00 
 244   21:10   0.00   67.3    30    6.1   322     8.7   827.9    0.00 
 244   21:20   0.00   66.5    30    5.1   320     6.9   827.9    0.00 
 244   21:30   0.00   66.0    30    4.6   337     6.9   828.0    0.00 
 244   21:40   0.00   65.8    31    3.8   326     6.1   828.0    0.00 
 244   21:50   0.00   66.1    30    1.8   329     3.0   828.0    0.00 
 244   22:00   0.00   65.2    32    2.4   306     3.7   828.1    0.00 
 244   22:10   0.00   64.3    33    4.0   310     6.6   828.1    0.00 
 244   22:20   0.00   63.0    35    4.9   328     8.2   828.1    0.00 
 244   22:30   0.00   63.6    34    5.0   314     7.7   828.1    0.00 
 244   22:40   0.00   63.2    35    4.7   308     8.5   828.1    0.00 
 244   22:50   0.00   62.2    37    4.2   299     7.5   828.0    0.00 
 244   23:00   0.00   61.7    37    2.6   268     4.6   828.0    0.00 
 244   23:10   0.00   60.5    40    5.6   170     9.2   828.1    0.00 
 244   23:20   0.00   61.5    38    1.0    30     5.5   828.2    0.00 
 244   23:30   0.00   60.6    39    2.6   212     4.2   828.2    0.00 
 244   23:40   0.00   59.3    41    1.9   205     4.5   828.2    0.00 
 244   23:50   0.00   57.5    45    3.2   243     4.2   828.2    0.00 
 245    0:00   0.00   56.1    48    2.8   206     5.3   828.1    0.00 
 245    0:10   0.00   56.6    48    2.3   253     5.5   828.1    0.00 
 245    0:20   0.00   56.4    48    1.3   212     3.2   828.1    0.00 
 245    0:30   0.00   57.2    46    2.6   267     3.7   828.1    0.00 
 245    0:40   0.00   56.0    47    2.1   258     5.0   828.1    0.00 
 245    0:50   0.00   57.1    46    2.3   257     5.9   828.0    0.00 
 245    1:00   0.00   52.6    56    4.8   253     6.1   827.9    0.00 
 245    1:10   0.00   52.9    56    2.3   252     3.5   828.0    0.00 
 245    1:20   0.00   54.9    49    1.5   217     3.1   828.0    0.00 
 245    1:30   0.00   54.9    49    0.6   140     2.1   828.1    0.00 
 245    1:40   0.00   54.3    48    0.4   166     1.4   828.1    0.00 
 245    1:50   0.00   54.5    47    0.2   172     1.4   828.1    0.00 
 245    2:00   0.00   53.3    49    0.8   265     2.6   828.1    0.00 
 245    2:10   0.00   51.8    56    3.0   277     4.0   828.1    0.00 
 245    2:20   0.00   49.8    63    5.0   270     5.8   828.0    0.00 
 245    2:30   0.00   50.1    61    5.0   260     5.6   828.0    0.00 
 245    2:40   0.00   51.5    57    4.1   256     5.3   828.0    0.00 
 245    2:50   0.00   52.2    54    2.4   225     3.9   828.1    0.00 
 245    3:00   0.00   49.0    62    1.3   204     3.0   828.1    0.00 
 245    3:10   0.00   49.0    60    2.1   148     3.8   828.1    0.00 
 245    3:20   0.00   48.0    62    2.6   197     4.3   828.1    0.00 
 245    3:30   0.00   47.7    64    1.1   179     2.0   828.0    0.00 
 245    3:40   0.00   46.9    66    0.7   343     2.3   828.0    0.00 
 245    3:50   0.00   47.4    65    1.9   316     4.2   828.0    0.00 
 245    4:00   0.00   48.5    63    2.6   308     3.6   828.0    0.00 
 245    4:10   0.00   49.3    61    2.4   315     4.8   828.0    0.00 
 245    4:20   0.00   48.1    64    4.1   302     5.1   828.0    0.00 
 245    4:30   0.00   46.7    68    3.5   297     6.1   828.1    0.00 
 245    4:40   0.00   46.7    67    1.7   355     3.4   828.0    0.00 
 245    4:50   0.00   47.8    65    2.6   282     3.9   828.0    0.00 
 245    5:00   0.00   46.9    69    2.5   296     5.0   828.0    0.00 
 245    5:10   0.00   49.2    61    0.7    18     2.6   828.1    0.00 
 245    5:20   0.01   45.2    69    1.2   266     3.0   828.2    0.00 
 245    5:30   0.02   45.8    70    0.8   289     2.3   828.3    0.00 
 245    5:40   0.06   48.4    65    1.0   295     3.1   828.4    0.00 
 245    5:50   0.08   50.4    60    0.3    42     1.2   828.4    0.00 
 245    6:00   0.11   52.2    60    0.4   347     1.3   828.5    0.00 
 245    6:10   0.14   54.2    56    0.8    38     2.1   828.6    0.00 
 245    6:20   0.18   54.3    55    2.6    41     4.4   828.7    0.00 
 245    6:30   0.21   55.6    53    3.9    17     6.4   828.7    0.00 
 245    6:40   0.25   57.0    50    5.0    39     7.2   828.8    0.00 
 245    6:50   0.28   57.3    49    4.2    28     6.2   828.9    0.00 
 245    7:00   0.32   58.3    47    3.7    23     6.1   828.9    0.00 
 245    7:10   0.35   59.8    43    2.5     1     4.3   828.8    0.00 
 245    7:20   0.39   62.0    40    3.0    16     5.0   828.8    0.00 
 245    7:30   0.43   63.3    38    3.2    28     5.3   828.7    0.00 
 245    7:40   0.46   64.1    38    4.3    45     7.3   828.6    0.00 
 245    7:50   0.50   64.9    35    3.2    61     5.7   828.5    0.00 
 245    8:00   0.53   65.2    35    3.5    88     6.3   828.4    0.00 
 245    8:10   0.56   65.7    34    3.3    92     5.6   828.4    0.00 

Return to North Spring Valley graphs page.


Western Regional Climate Center,wrcc@dri.edu